Latest Weather Observations for Fortescue Dave Forrest

IDW60801

Issued at 2:04 pm WST Monday 27 March 2017 (issued every 30 minutes, with the page automatically refreshed every 10 minutes)

About weather observations | Map of weather stations | Latest weather observations for WA | Other Formats
Station Details ID: 505056 Name: FORTESCUE DAVE FORREST Lat: -22.29 Lon: 119.43 Height: 474.6 m
Data from the previous 72 hours. | See also: Recent months for locations in Western Australia
Date/Time
WST
Temp
°C
App
Temp
°C
Dew
Point
°C
Rel
Hum
%
Delta-T
°C
Wind Press
QNH
hPa
Press
MSL
hPa
Rain since
9am
mm
Dir  Spd
km/h
Gust
km/h
Spd
kts
Gust
kts
27/02:00pm 33.5 32.2 19.9 44 9.2 ESE 26 37 14 20 1011.9 1008.6 -
27/01:30pm 34.7 34.3 21.0 44 9.4 ESE 24 39 13 21 1012.7 1009.3 0.0
27/01:00pm 33.9 33.0 20.6 45 9.1 ESE 26 39 14 21 1012.9 1009.5 0.0
27/12:30pm 33.4 32.8 20.5 46 8.8 SE 24 35 13 19 1013.2 1009.8 0.0
27/12:00pm 32.7 31.0 19.9 46 8.6 ESE 28 39 15 21 1014.0 1010.5 0.0
27/11:30am 32.3 31.6 20.2 48 8.2 ESE 24 39 13 21 1014.4 1010.9 0.0
27/11:00am 31.9 30.5 20.5 51 7.7 ESE 28 37 15 20 1014.7 1011.3 0.0
27/10:30am 31.0 30.5 21.5 57 6.5 ESE 26 35 14 19 1015.0 1011.6 0.0
27/10:00am 29.8 28.1 20.6 57 6.2 ESE 30 41 16 22 1015.3 1011.9 0.0
27/09:30am 29.3 28.0 21.3 62 5.4 ESE 30 41 16 22 1015.4 1012.0 0.0
27/09:00am 28.3 26.3 20.8 63 5.1 ESE 32 44 17 24 1015.1 1011.7 0.0
27/08:30am 27.8 27.1 21.1 67 4.5 SE 26 43 14 23 1014.9 1011.5 0.0
27/08:00am 27.2 27.2 21.0 69 4.2 SE 22 35 12 19 1014.6 1011.2 0.0
27/07:30am 26.2 26.6 21.0 73 3.5 SE 20 30 11 16 1014.3 1010.8 0.0
27/07:00am 25.7 26.6 20.9 75 3.2 SE 17 24 9 13 1014.1 1010.6 0.0
27/06:30am 25.1 26.3 20.6 76 3.0 SE 15 22 8 12 1013.7 1010.2 0.0
27/06:00am 25.1 26.4 20.8 77 2.9 SE 15 22 8 12 1013.3 1009.9 0.0
27/05:30am 25.3 26.9 20.8 76 3.0 SE 13 20 7 11 1013.2 1009.8 0.0
27/05:00am 25.1 27.7 21.2 79 2.6 SSE 9 15 5 8 1012.9 1009.5 0.0
27/04:30am 25.1 27.8 21.4 80 2.5 SSE 9 15 5 8 1012.8 1009.4 0.0
27/04:00am 25.6 28.1 21.7 79 2.6 SSE 11 15 6 8 1012.8 1009.4 0.0
27/03:30am 25.7 28.7 22.0 80 2.5 SSE 9 13 5 7 1012.8 1009.4 0.0
27/03:00am 26.0 29.2 22.3 80 2.5 SSE 9 13 5 7 1013.0 1009.6 0.0
27/02:30am 26.1 29.3 22.4 80 2.5 S 9 11 5 6 1012.9 1009.5 0.0
27/02:00am 26.2 29.8 22.1 78 2.8 SE 6 7 3 4 1012.8 1009.4 0.0
27/01:30am 26.2 31.5 23.1 83 2.1 CALM 0 4 0 2 1012.8 1009.4 0.0
27/01:00am 26.3 29.6 21.9 77 3.0 SE 7 9 4 5 1012.9 1009.5 0.0
27/12:30am 26.4 30.7 22.7 80 2.5 ESE 4 4 2 2 1013.2 1009.8 0.0
27/12:00am 26.8 30.7 22.6 78 2.9 SE 6 7 3 4 1013.3 1009.9 0.0
 
Date/Time
WST
Temp
°C
App
Temp
°C
Dew
Point
°C
Rel
Hum
%
Delta-T
°C
Wind Press
QNH
hPa
Press
MSL
hPa
Rain since
9am
mm
Dir  Spd
km/h
Gust
km/h
Spd
kts
Gust
kts
26/11:30pm 26.9 32.1 23.6 82 2.3 WNW 2 2 1 1 1013.6 1010.1 0.0
26/11:00pm 26.3 31.4 23.4 84 2.0 SW 2 4 1 2 1013.6 1010.1 0.0
26/10:30pm 27.0 32.3 23.7 82 2.3 NE 2 4 1 2 1013.5 1010.0 0.0
26/10:00pm 27.6 31.3 22.5 74 3.5 SSE 7 11 4 6 1013.1 1009.7 0.0
26/09:30pm 27.6 30.5 22.5 74 3.5 SSE 11 20 6 11 1013.2 1009.8 0.0
26/09:00pm 28.5 33.0 22.3 69 4.3 ENE 2 6 1 3 1013.0 1009.6 0.0
26/08:30pm 28.6 33.5 23.1 72 3.8 NW 2 4 1 2 1012.7 1009.3 0.0
26/08:00pm 29.3 32.9 22.0 64 5.0 NE 6 9 3 5 1012.8 1009.4 0.0
26/07:30pm 28.8 32.1 21.8 66 4.8 ESE 7 9 4 5 1012.5 1009.0 0.0
26/07:00pm 29.5 33.8 22.7 67 4.7 E 4 7 2 4 1011.9 1008.4 0.0
26/06:30pm 30.3 34.3 22.7 64 5.3 N 6 7 3 4 1011.3 1007.8 0.0
26/06:00pm 31.2 35.1 21.9 57 6.4 E 4 6 2 3 1011.0 1007.6 0.0
26/05:30pm 31.6 33.8 20.5 51 7.5 ENE 9 13 5 7 1010.9 1007.5 0.0
26/05:00pm 31.7 33.1 21.8 55 6.8 ENE 17 24 9 13 1010.8 1007.4 0.0
26/04:30pm 33.4 36.6 20.5 46 8.8 NW 4 6 2 3 1010.3 1006.8 0.0
26/04:00pm 32.6 36.1 21.1 50 7.9 E 4 7 2 4 1010.3 1006.8 0.0
26/03:30pm 31.0 32.9 20.6 54 7.0 N 11 26 6 14 1010.2 1006.7 0.0
26/03:00pm 33.3 35.9 20.5 47 8.7 SSE 7 11 4 6 1010.1 1006.6 0.0
26/02:30pm 33.8 36.7 19.8 43 9.4 SSE 4 9 2 5 1010.2 1006.7 0.0
26/02:00pm 32.9 35.5 20.4 47 8.5 ESE 7 15 4 8 1010.2 1006.7 0.0
26/01:30pm 33.4 36.2 20.5 46 8.8 NNW 6 7 3 4 1010.3 1006.8 0.0
26/01:00pm 32.5 34.7 20.4 49 8.2 S 9 17 5 9 1010.7 1007.3 0.0
26/12:30pm 32.5 35.3 20.4 49 8.2 SE 6 13 3 7 1011.1 1007.7 0.0
26/12:00pm 31.7 34.0 20.6 51 7.5 SE 9 15 5 8 1011.6 1008.1 0.0
26/11:30am 31.5 33.5 20.8 53 7.3 SSE 11 19 6 10 1011.9 1008.4 0.0
26/11:00am 30.8 33.5 22.1 59 6.0 SSE 11 20 6 11 1012.3 1008.8 0.0
26/10:30am 29.8 32.3 22.5 65 5.0 SE 13 22 7 12 1012.4 1008.9 0.0
26/10:00am 29.6 33.0 23.3 69 4.4 SE 11 19 6 10 1012.4 1008.9 0.0
26/09:30am 28.5 31.1 22.7 71 4.0 SE 13 20 7 11 1012.6 1009.2 0.0
26/09:00am 27.9 29.6 22.4 72 3.8 SSE 17 24 9 13 1012.7 1009.3 6.2
26/08:30am 27.2 28.9 22.4 75 3.3 SE 17 22 9 12 1012.5 1009.0 6.2
26/08:00am 26.6 28.7 22.4 78 2.9 SE 15 24 8 13 1012.3 1008.8 6.2
26/07:30am 25.8 27.8 22.3 81 2.4 SSE 15 22 8 12 1012.1 1008.6 6.2
26/07:00am 25.2 29.2 23.1 88 1.4 SSW 7 13 4 7 1011.9 1008.4 6.2
26/06:30am 23.7 27.8 22.9 95 0.5 SSW 6 7 3 4 1011.8 1008.3 6.2
26/06:00am 23.7 27.4 22.3 92 1.0 S 6 7 3 4 1011.5 1008.0 6.2
26/05:30am 24.1 28.7 22.5 91 1.1 SW 2 4 1 2 1011.1 1007.7 6.2
26/05:00am 24.6 28.8 22.5 88 1.4 WSW 4 6 2 3 1011.0 1007.6 6.2
26/04:30am 24.9 29.2 22.0 84 2.0 W 2 7 1 4 1011.0 1007.6 6.2
26/04:00am 25.0 28.6 22.1 84 2.0 W 6 7 3 4 1010.9 1007.5 6.2
26/03:30am 25.2 28.5 22.5 85 1.8 W 9 13 5 7 1010.9 1007.5 6.2
26/03:00am 25.1 28.4 22.6 86 1.7 W 9 11 5 6 1010.9 1007.5 6.2
26/02:30am 25.5 28.7 22.4 83 2.1 W 9 15 5 8 1010.9 1007.5 6.2
26/02:00am 25.5 29.1 22.4 83 2.1 W 7 15 4 8 1011.0 1007.6 6.2
26/01:30am 25.3 28.9 22.4 84 2.0 NW 7 9 4 5 1011.1 1007.7 6.2
26/01:00am 25.4 29.1 22.5 84 2.0 NW 7 9 4 5 1011.1 1007.7 6.2
26/12:30am 25.6 29.3 22.5 83 2.1 N 7 13 4 7 1011.3 1007.8 6.2
26/12:00am 25.7 29.0 21.8 79 2.6 NNE 7 9 4 5 1011.1 1007.7 6.2
 
Date/Time
WST
Temp
°C
App
Temp
°C
Dew
Point
°C
Rel
Hum
%
Delta-T
°C
Wind Press
QNH
hPa
Press
MSL
hPa
Rain since
9am
mm
Dir  Spd
km/h
Gust
km/h
Spd
kts
Gust
kts
25/11:30pm 25.7 30.0 22.0 80 2.5 NNE 2 6 1 3 1011.4 1007.9 6.2
25/11:00pm 26.1 29.8 22.2 79 2.7 NNW 6 7 3 4 1011.5 1008.0 6.2
25/10:30pm 26.1 30.1 22.8 82 2.3 NW 6 7 3 4 1011.4 1007.9 6.2
25/10:00pm 26.4 29.6 22.3 78 2.8 N 9 13 5 7 1011.6 1008.1 6.2
25/09:30pm 26.7 30.6 22.5 78 2.9 NNE 6 7 3 4 1011.5 1008.0 6.2
25/09:00pm 26.9 30.8 22.5 77 3.0 NNW 6 7 3 4 1011.3 1007.8 6.2
25/08:30pm 27.1 31.8 23.3 80 2.6 N 4 6 2 3 1010.9 1007.5 6.2
25/08:00pm 27.1 31.8 23.3 80 2.6 NNE 4 6 2 3 1010.6 1007.1 6.2
25/07:30pm 26.8 31.3 22.2 76 3.1 ENE 2 6 1 3 1010.2 1006.7 6.2
25/07:00pm 26.6 30.1 21.8 75 3.3 ENE 6 13 3 7 1010.0 1006.5 6.2
25/06:30pm 26.9 28.6 21.6 72 3.6 E 15 20 8 11 1009.4 1005.9 6.2
25/06:00pm 27.7 31.2 22.2 72 3.8 SE 7 11 4 6 1008.8 1005.4 6.2
25/05:30pm 27.9 31.7 22.8 74 3.5 SSW 7 11 4 6 1008.6 1005.1 6.2
25/05:00pm 27.9 30.1 21.9 70 4.1 WNW 13 19 7 10 1008.6 1005.1 6.2
25/04:57pm 28.0 31.1 22.9 74 3.5 WNW 11 17 6 9 1008.6 1005.1 6.0
25/04:40pm 25.9 26.3 21.8 78 2.8 WSW 22 43 12 23 1008.5 1005.0 5.8
25/04:31pm 30.1 32.7 20.4 56 6.5 NNW 7 17 4 9 1008.5 1005.0 1.4
25/04:30pm 30.5 33.1 20.4 54 6.8 NW 7 17 4 9 1008.4 1004.9 1.0
25/04:00pm 31.5 33.7 20.4 51 7.5 WSW 9 17 5 9 1008.2 1004.7 0.0
25/03:30pm 31.7 33.7 20.0 50 7.9 N 9 17 5 9 1008.3 1004.8 0.0
25/03:00pm 32.3 34.4 20.2 48 8.2 WNW 9 15 5 8 1008.4 1004.9 0.0
25/02:30pm 31.3 33.8 20.3 52 7.4 NNW 7 15 4 8 1008.6 1005.1 0.0
25/02:00pm 30.8 33.0 20.4 54 7.0 NNW 9 17 5 9 1008.7 1005.3 0.0
25/01:30pm 31.3 33.8 20.3 52 7.4 N 7 13 4 7 1009.1 1005.6 0.0
25/01:00pm 31.5 32.3 19.8 49 7.9 N 15 19 8 10 1009.4 1005.9 0.0
25/12:30pm 30.5 32.9 20.1 53 7.0 NNE 7 15 4 8 1009.8 1006.3 0.0
25/12:00pm 30.5 33.7 21.3 58 6.3 W 6 15 3 8 1010.3 1006.8 0.0
25/11:30am 29.8 32.7 20.6 57 6.2 W 6 13 3 7 1010.6 1007.1 0.0
25/11:00am 28.7 32.3 22.4 68 4.3 WSW 7 15 4 8 1011.1 1007.7 0.0
25/10:30am 27.7 31.3 22.0 71 3.9 WSW 6 13 3 7 1011.4 1007.9 0.0
25/10:00am 27.4 31.1 22.6 75 3.3 WSW 7 11 4 6 1011.6 1008.1 0.0
25/09:30am 27.2 31.2 22.8 77 3.0 W 6 9 3 5 1011.8 1008.3 0.0
25/09:13am 26.3 30.1 22.8 81 2.4 WNW 7 11 4 6 1011.8 1008.3 0.0
25/09:00am 26.5 30.6 23.0 81 2.4 WNW 6 13 3 7 1011.8 1008.3 -
25/08:30am 25.6 29.8 23.1 86 1.7 NW 6 9 3 5 1011.5 1008.0 -
25/08:16am 25.1 29.5 22.8 87 1.6 W 4 7 2 4 1011.3 1007.8 -
25/08:00am 25.1 29.9 22.8 87 1.6 NNW 2 4 1 2 1011.3 1007.8 -
25/07:30am 24.2 29.2 23.2 94 0.7 SW 2 4 1 2 1011.0 1007.6 -
25/07:00am 23.6 28.4 22.9 96 0.5 N 2 4 1 2 1010.8 1007.4 -
25/06:43am 23.4 28.1 22.7 96 0.5 ESE 2 2 1 1 1010.6 1007.1 -
25/06:30am 23.4 28.1 22.7 96 0.5 SE 2 4 1 2 1010.4 1006.9 -
25/06:00am 23.3 27.2 22.6 96 0.5 SE 6 6 3 3 1010.1 1006.6 -
25/05:37am 23.4 28.1 22.7 96 0.5 SSW 2 4 1 2 1010.1 1006.6 -
25/05:30am 23.4 28.1 22.7 96 0.5 S 2 4 1 2 1010.1 1006.6 -
25/05:00am 23.4 28.1 22.7 96 0.5 SSW 2 4 1 2 1009.8 1006.3 -
25/04:30am 23.3 27.6 22.6 96 0.5 ESE 4 6 2 3 1009.5 1006.0 -
25/04:00am 23.3 27.5 22.5 95 0.5 WSW 4 4 2 2 1009.4 1005.9 -
25/03:42am 23.4 28.0 22.4 94 0.7 ESE 2 4 1 2 1009.4 1005.9 -
25/03:30am 23.5 27.6 22.3 93 0.8 E 4 6 2 3 1009.5 1006.0 -
25/03:07am 23.3 27.5 21.7 91 1.1 ENE 2 4 1 2 1009.5 1006.0 -
25/03:00am 23.3 27.8 22.3 94 0.7 NE 2 2 1 1 1009.5 1006.0 0.8
25/02:34am 23.2 27.5 22.0 93 0.8 ENE 2 2 1 1 1009.3 1005.8 -
25/02:30am 23.2 27.5 22.0 93 0.8 ENE 2 4 1 2 1009.4 1005.9 -
25/02:08am 23.1 27.5 22.1 94 0.7 ENE 2 4 1 2 1009.4 1005.9 -
25/02:00am 23.0 27.0 22.0 94 0.7 E 4 6 2 3 1009.4 1005.9 -
25/01:39am 23.0 27.0 22.0 94 0.7 SW 4 6 2 3 1009.4 1005.9 -
25/01:30am 23.0 27.0 22.0 94 0.7 SW 4 6 2 3 1009.5 1006.0 -
25/01:02am 23.1 27.3 21.7 92 0.9 W 2 6 1 3 1009.7 1006.2 -
25/01:00am 23.1 26.9 21.7 92 0.9 W 4 6 2 3 1009.7 1006.2 -
25/12:30am 23.0 25.9 21.8 93 0.8 WNW 9 13 5 7 1009.8 1006.3 -
25/12:00am 24.0 25.7 22.4 91 1.1 WNW 17 28 9 15 1010.0 1006.5 -
 
Date/Time
WST
Temp
°C
App
Temp
°C
Dew
Point
°C
Rel
Hum
%
Delta-T
°C
Wind Press
QNH
hPa
Press
MSL
hPa
Rain since
9am
mm
Dir  Spd
km/h
Gust
km/h
Spd
kts
Gust
kts
24/11:55pm 24.1 25.9 22.5 91 1.1 WNW 17 24 9 13 1010.1 1006.6 -
24/11:30pm 24.9 28.2 23.9 94 0.7 NNW 13 19 7 10 1009.9 1006.4 -
24/11:23pm 24.9 28.2 23.9 94 0.7 NNW 13 20 7 11 1010.0 1006.5 -
24/11:09pm 24.9 28.2 23.9 94 0.7 NNW 13 19 7 10 1010.1 1006.6 -
24/11:00pm 24.9 27.8 23.9 94 0.7 NNW 15 22 8 12 1010.1 1006.6 -
24/10:30pm 25.1 27.5 23.7 92 1.0 NNW 17 20 9 11 1010.2 1006.7 -
24/10:00pm 25.2 28.0 23.6 91 1.1 NNW 15 24 8 13 1010.0 1006.5 -
24/09:53pm 25.3 27.6 23.5 90 1.2 NNW 17 24 9 13 1009.9 1006.4 -
24/09:30pm 25.3 27.2 23.4 89 1.3 NNW 19 28 10 15 1009.8 1006.3 -
24/09:00pm 25.5 27.7 23.2 87 1.6 NNW 17 22 9 12 1009.4 1005.9 2.0
24/08:30pm 25.6 28.0 22.9 85 1.9 N 15 20 8 11 1009.2 1005.7 -
24/08:00pm 25.8 29.4 23.1 85 1.9 N 9 15 5 8 1008.7 1005.3 -
24/07:30pm 26.2 30.4 23.5 85 1.9 NNW 7 11 4 6 1008.5 1005.0 -
24/07:00pm 26.1 30.5 23.8 87 1.6 NNW 7 11 4 6 1008.2 1004.7 -
24/06:30pm 26.3 29.9 23.8 86 1.7 N 11 15 6 8 1007.6 1004.1 -
24/06:00pm 25.8 30.5 24.0 90 1.3 NNW 6 7 3 4 1007.3 1003.8 -
24/05:32pm 25.3 29.0 23.9 92 1.0 NW 11 15 6 8 1007.0 1003.5 -
24/05:30pm 25.2 28.8 23.8 92 1.0 NW 11 19 6 10 1007.0 1003.5 -
24/05:11pm 25.3 26.6 23.4 89 1.3 NW 22 32 12 17 1007.1 1003.6 -
24/05:00pm 27.5 28.9 22.9 76 3.2 NNW 20 33 11 18 1007.0 1003.5 -
24/04:30pm 27.9 29.4 23.1 75 3.3 N 20 30 11 16 1006.6 1003.1 -
24/04:00pm 28.1 28.8 22.3 70 4.0 NNW 22 30 12 16 1006.5 1003.0 -
24/03:30pm 28.2 28.7 22.7 72 3.8 N 24 32 13 17 1006.3 1002.8 -
24/03:00pm 27.8 28.7 23.4 77 3.1 NNW 24 32 13 17 1006.5 1003.0 -
24/02:30pm 27.8 29.7 23.4 77 3.1 N 19 28 10 15 1006.6 1003.1 -

Other Formats:

Comma delimited format used in spreadsheet applications
http://www.bom.gov.au/fwo/IDW60801/IDW60801.99736.axf

JavaScript Object Notation format (JSON) in row-major order
http://www.bom.gov.au/fwo/IDW60801/IDW60801.99736.json